createdAt,value
2018-05-16T00:02:02.040Z,12.80
2018-05-16T00:04:30.518Z,12.67
2018-05-16T00:06:57.982Z,12.45
2018-05-16T00:09:25.433Z,12.32
2018-05-16T00:11:52.890Z,12.22
2018-05-16T00:14:20.286Z,12.35
2018-05-16T00:16:47.732Z,12.45
2018-05-16T00:19:16.035Z,12.47
2018-05-16T00:21:43.493Z,12.47
2018-05-16T00:24:10.945Z,12.49
2018-05-16T00:26:38.375Z,12.54
2018-05-16T00:29:05.821Z,12.59
2018-05-16T00:31:33.297Z,12.63
2018-05-16T00:34:00.693Z,12.64
2018-05-16T00:36:28.090Z,12.65
2018-05-16T00:38:55.601Z,12.64
2018-05-16T00:41:23.016Z,12.65
2018-05-16T00:43:50.478Z,12.63
2018-05-16T00:46:17.903Z,12.58
2018-05-16T00:48:45.331Z,12.60
2018-05-16T00:51:24.461Z,12.65
2018-05-16T00:53:51.905Z,12.67
2018-05-16T00:56:19.360Z,12.66
2018-05-16T00:58:46.847Z,12.64
2018-05-16T01:01:14.254Z,12.56
2018-05-16T01:03:41.696Z,12.32
2018-05-16T01:06:09.173Z,12.16
2018-05-16T01:08:36.654Z,12.17
2018-05-16T01:11:04.081Z,12.25
2018-05-16T01:13:31.545Z,12.30
2018-05-16T01:15:58.936Z,12.31
2018-05-16T01:18:27.281Z,12.24
2018-05-16T01:20:54.678Z,12.20
2018-05-16T01:23:22.181Z,12.15
2018-05-16T01:25:49.615Z,12.05
2018-05-16T01:28:17.065Z,11.90
2018-05-16T01:30:44.456Z,11.84
2018-05-16T01:33:11.867Z,11.91
2018-05-16T01:35:39.294Z,11.95
2018-05-16T01:38:06.719Z,12.03
2018-05-16T01:40:34.156Z,12.09
2018-05-16T01:43:01.546Z,12.11
2018-05-16T01:45:29.707Z,12.03
2018-05-16T01:47:57.135Z,11.96
2018-05-16T01:50:24.570Z,11.89
2018-05-16T01:52:51.994Z,11.96
2018-05-16T01:55:19.400Z,12.03
2018-05-16T01:57:50.547Z,12.05
2018-05-16T02:00:18.073Z,12.04
2018-05-16T02:02:45.549Z,12.09
2018-05-16T02:05:13.038Z,12.13
2018-05-16T02:07:40.441Z,12.12
2018-05-16T02:10:07.879Z,12.11
2018-05-16T02:12:35.295Z,12.08
2018-05-16T02:15:03.761Z,12.06
2018-05-16T02:17:31.204Z,12.04
2018-05-16T02:19:58.611Z,12.05
2018-05-16T02:22:26.089Z,12.09
2018-05-16T02:24:53.750Z,12.11
2018-05-16T02:27:21.200Z,12.20
2018-05-16T02:29:48.623Z,12.18
2018-05-16T02:32:16.023Z,11.86
2018-05-16T02:34:43.470Z,11.64
2018-05-16T02:37:10.911Z,11.58
2018-05-16T02:39:38.309Z,11.61
2018-05-16T02:42:09.348Z,11.71
2018-05-16T02:44:37.624Z,11.82
2018-05-16T02:47:05.025Z,11.84
2018-05-16T02:49:32.464Z,11.72
2018-05-16T02:51:59.912Z,11.72
2018-05-16T02:54:27.409Z,11.69
2018-05-16T02:56:54.902Z,11.60
2018-05-16T02:59:22.425Z,11.60
2018-05-16T03:01:49.859Z,11.78
2018-05-16T03:04:17.293Z,11.89
2018-05-16T03:06:44.707Z,12.03
2018-05-16T03:09:13.078Z,12.13
2018-05-16T03:11:42.145Z,12.20
2018-05-16T03:14:09.545Z,12.25
2018-05-16T03:16:37.025Z,12.27
2018-05-16T03:19:05.655Z,12.31
2018-05-16T03:21:33.128Z,12.30
2018-05-16T03:24:00.568Z,12.29
2018-05-16T03:26:28.001Z,12.28
2018-05-16T03:28:55.455Z,12.24
2018-05-16T03:31:22.953Z,12.23
2018-05-16T03:33:50.396Z,12.21
2018-05-16T03:36:17.941Z,12.26
2018-05-16T03:38:45.398Z,12.27
2018-05-16T03:41:12.852Z,12.30
2018-05-16T03:43:40.288Z,12.28
2018-05-16T03:46:08.444Z,12.23
2018-05-16T03:48:36.706Z,12.24
2018-05-16T03:51:04.413Z,12.21
2018-05-16T03:53:32.243Z,12.23
2018-05-16T03:55:59.639Z,12.02
2018-05-16T03:58:38.793Z,11.90
2018-05-16T04:01:17.984Z,12.01
2018-05-16T04:06:45.422Z,12.27
2018-05-16T04:09:12.863Z,12.26
2018-05-16T04:11:40.307Z,12.22
2018-05-16T04:14:07.738Z,12.20
2018-05-16T04:16:35.154Z,12.17
2018-05-16T04:19:02.623Z,12.21
2018-05-16T04:21:30.011Z,12.23
2018-05-16T04:23:57.429Z,12.23
2018-05-16T04:26:24.890Z,12.22
2018-05-16T04:28:53.434Z,12.25
2018-05-16T04:31:20.852Z,12.21
2018-05-16T04:33:48.263Z,12.16
2018-05-16T04:36:15.734Z,12.16
2018-05-16T04:38:44.273Z,12.19
2018-05-16T04:41:11.706Z,12.22
2018-05-16T04:43:39.580Z,12.26
2018-05-16T04:46:08.239Z,12.30
2018-05-16T04:48:35.701Z,12.32
2018-05-16T04:51:03.133Z,12.35
2018-05-16T04:53:31.331Z,12.33
2018-05-16T04:55:58.767Z,12.37
2018-05-16T04:58:26.859Z,12.40
2018-05-16T05:00:54.542Z,12.39
2018-05-16T05:03:21.960Z,12.41
2018-05-16T05:05:49.406Z,12.46
2018-05-16T05:08:17.664Z,12.54
2018-05-16T05:10:45.091Z,12.59
2018-05-16T05:13:13.370Z,12.64
2018-05-16T05:15:40.772Z,12.46
2018-05-16T05:18:08.181Z,12.46
2018-05-16T05:20:35.614Z,12.56
2018-05-16T05:23:03.040Z,12.63
2018-05-16T05:25:30.651Z,12.59
2018-05-16T05:27:58.114Z,12.61
2018-05-16T05:30:25.620Z,12.43
2018-05-16T05:32:52.924Z,12.47
2018-05-16T05:35:20.351Z,12.56
2018-05-16T05:37:48.776Z,12.68
2018-05-16T05:40:16.629Z,12.85
2018-05-16T05:42:45.564Z,12.90
2018-05-16T05:45:12.984Z,12.87
2018-05-16T05:47:43.353Z,12.95
2018-05-16T05:50:10.794Z,13.04
2018-05-16T05:52:38.372Z,13.03
2018-05-16T05:55:05.823Z,13.13
2018-05-16T05:57:33.268Z,13.05
2018-05-16T06:00:00.741Z,13.02
2018-05-16T06:02:28.095Z,12.96
2018-05-16T06:04:57.332Z,12.94
2018-05-16T06:07:24.785Z,13.01
2018-05-16T06:09:52.800Z,13.07
2018-05-16T06:12:20.223Z,13.02
2018-05-16T06:14:48.854Z,12.88
2018-05-16T06:17:16.331Z,12.59
2018-05-16T06:19:43.828Z,12.50
2018-05-16T06:22:11.297Z,12.58
2018-05-16T06:24:38.705Z,12.71
2018-05-16T06:27:06.226Z,12.73
2018-05-16T06:29:33.645Z,12.68
2018-05-16T06:32:01.128Z,12.61
2018-05-16T06:34:28.560Z,12.64
2018-05-16T06:36:56.009Z,12.69
2018-05-16T06:39:23.485Z,12.76
2018-05-16T06:41:50.887Z,12.83
2018-05-16T06:44:18.333Z,12.92
2018-05-16T06:46:45.818Z,13.01
2018-05-16T06:49:13.297Z,13.21
2018-05-16T06:51:40.880Z,13.33
2018-05-16T06:54:08.271Z,13.24
2018-05-16T06:56:35.716Z,13.30
2018-05-16T06:59:03.173Z,13.42
2018-05-16T07:01:31.857Z,13.36
2018-05-16T07:03:59.362Z,13.28
2018-05-16T07:06:26.767Z,13.30
2018-05-16T07:08:54.226Z,13.45
2018-05-16T07:11:21.727Z,13.82
2018-05-16T07:13:49.727Z,14.13
2018-05-16T07:16:17.196Z,14.46
2018-05-16T07:18:44.642Z,14.76
2018-05-16T07:21:12.080Z,15.19
2018-05-16T07:23:39.681Z,15.68
2018-05-16T07:26:07.075Z,15.99
2018-05-16T07:28:34.578Z,16.03
2018-05-16T07:31:02.011Z,16.36
2018-05-16T07:33:29.415Z,16.61
2018-05-16T07:35:57.691Z,16.98
2018-05-16T07:38:25.089Z,17.44
2018-05-16T07:40:52.557Z,17.86
2018-05-16T07:43:20.864Z,17.96
2018-05-16T07:45:48.456Z,17.83
2018-05-16T07:48:15.895Z,17.47
2018-05-16T07:50:43.303Z,17.14
2018-05-16T07:53:10.787Z,16.94
2018-05-16T07:55:38.247Z,16.67
2018-05-16T07:58:05.682Z,16.62
2018-05-16T08:00:33.178Z,16.63
2018-05-16T08:03:00.615Z,16.72
2018-05-16T08:05:28.051Z,16.86
2018-05-16T08:07:55.586Z,16.96
2018-05-16T08:10:23.144Z,16.92
2018-05-16T08:12:50.612Z,16.88
2018-05-16T08:15:18.100Z,17.04
2018-05-16T08:17:46.067Z,17.30
2018-05-16T08:20:13.583Z,17.60
2018-05-16T08:22:41.045Z,18.15
2018-05-16T08:25:08.497Z,18.51
2018-05-16T08:27:35.941Z,18.72
2018-05-16T08:30:03.395Z,18.56
2018-05-16T08:32:30.877Z,18.03
2018-05-16T08:34:58.290Z,17.90
2018-05-16T08:37:26.221Z,18.01
2018-05-16T08:39:54.860Z,18.08
2018-05-16T08:42:22.389Z,17.94
2018-05-16T08:44:50.437Z,17.72
2018-05-16T08:47:18.989Z,17.62
2018-05-16T08:49:46.389Z,17.70
2018-05-16T08:52:13.880Z,17.77
2018-05-16T08:54:41.287Z,17.80
2018-05-16T08:57:09.591Z,18.15
2018-05-16T08:59:37.041Z,18.70
2018-05-16T09:02:04.473Z,19.10
2018-05-16T09:04:31.984Z,19.36
2018-05-16T09:06:59.421Z,19.98
2018-05-16T09:09:26.860Z,20.69
2018-05-16T09:11:54.333Z,20.35
2018-05-16T09:14:21.804Z,19.92
2018-05-16T09:16:49.212Z,19.67
2018-05-16T09:19:16.681Z,19.62
2018-05-16T09:21:44.085Z,19.58
2018-05-16T09:24:11.533Z,19.60
2018-05-16T09:26:39.031Z,19.75
2018-05-16T09:29:06.464Z,19.74
2018-05-16T09:31:33.923Z,19.85
2018-05-16T09:34:01.401Z,19.90
2018-05-16T09:36:28.916Z,19.76
2018-05-16T09:38:56.338Z,19.80
2018-05-16T09:41:25.988Z,19.65
2018-05-16T09:43:53.439Z,19.63
2018-05-16T09:46:20.905Z,19.71
2018-05-16T09:48:48.429Z,19.58
2018-05-16T09:51:15.863Z,19.45
2018-05-16T09:53:43.352Z,19.31
2018-05-16T09:56:10.808Z,19.23
2018-05-16T09:58:38.278Z,19.17
2018-05-16T10:01:05.775Z,19.30
2018-05-16T10:03:33.245Z,19.21
2018-05-16T10:06:00.764Z,18.85
2018-05-16T10:08:28.790Z,18.84
2018-05-16T10:10:56.253Z,18.78
2018-05-16T10:13:23.824Z,18.56
2018-05-16T10:15:51.234Z,18.20
2018-05-16T10:18:18.669Z,17.90
2018-05-16T10:20:46.220Z,17.36
2018-05-16T10:23:13.671Z,16.85
2018-05-16T10:25:41.170Z,16.28
2018-05-16T10:28:08.629Z,15.80
2018-05-16T10:30:36.137Z,15.54
2018-05-16T10:33:03.574Z,15.38
2018-05-16T10:35:31.028Z,15.25
2018-05-16T10:37:58.445Z,15.05
2018-05-16T10:40:25.871Z,14.95
2018-05-16T10:42:53.401Z,14.86
2018-05-16T10:45:20.872Z,14.86
2018-05-16T10:47:48.410Z,14.89
2018-05-16T10:50:15.887Z,14.98
2018-05-16T10:52:43.347Z,14.92
2018-05-16T10:55:11.295Z,14.91
2018-05-16T10:57:38.743Z,15.17
2018-05-16T11:00:06.220Z,15.38
2018-05-16T11:02:33.675Z,15.50
2018-05-16T11:05:01.506Z,15.74
2018-05-16T11:07:28.934Z,15.89
2018-05-16T11:09:56.377Z,15.93
2018-05-16T11:12:24.135Z,15.96
2018-05-16T11:14:51.608Z,16.14
2018-05-16T11:17:19.096Z,16.40
2018-05-16T11:19:46.855Z,16.66
2018-05-16T11:22:14.395Z,16.70
2018-05-16T11:24:41.820Z,16.81
2018-05-16T11:27:09.259Z,16.79
2018-05-16T11:29:36.682Z,16.72
2018-05-16T11:32:04.315Z,16.59
2018-05-16T11:34:31.723Z,16.60
2018-05-16T11:37:00.052Z,16.47
2018-05-16T11:39:27.504Z,16.48
2018-05-16T11:41:55.029Z,16.57
2018-05-16T11:44:22.647Z,16.72
2018-05-16T11:46:50.110Z,17.00
2018-05-16T11:49:17.617Z,17.35
2018-05-16T11:51:45.096Z,17.87
2018-05-16T11:54:12.527Z,18.17
2018-05-16T11:56:40.041Z,18.41
2018-05-16T11:59:07.540Z,18.50
2018-05-16T12:01:34.940Z,18.30
2018-05-16T12:04:02.333Z,18.21
2018-05-16T12:06:29.779Z,18.22
2018-05-16T12:08:58.415Z,18.05
2018-05-16T12:11:25.858Z,17.96
2018-05-16T12:13:53.280Z,17.93
2018-05-16T12:16:20.746Z,17.84
2018-05-16T12:18:48.178Z,17.76
2018-05-16T12:21:15.661Z,17.76
2018-05-16T12:23:43.088Z,17.80
2018-05-16T12:26:10.516Z,18.07
2018-05-16T12:28:37.914Z,18.42
2018-05-16T12:31:05.357Z,18.70
2018-05-16T12:33:34.473Z,18.63
2018-05-16T12:36:01.904Z,18.59
2018-05-16T12:38:29.336Z,18.43
2018-05-16T12:40:56.776Z,18.24
2018-05-16T12:43:30.896Z,18.19
2018-05-16T12:45:59.800Z,18.12
2018-05-16T12:48:27.194Z,17.92
2018-05-16T12:50:54.616Z,17.69
2018-05-16T12:53:22.081Z,17.54
2018-05-16T12:55:49.616Z,17.20
2018-05-16T12:58:17.041Z,17.02
2018-05-16T13:00:44.469Z,16.96
2018-05-16T13:03:11.917Z,16.96
2018-05-16T13:05:39.386Z,16.81
2018-05-16T13:08:06.837Z,16.75
2018-05-16T13:10:34.278Z,16.63
2018-05-16T13:13:01.824Z,16.69
2018-05-16T13:15:29.142Z,16.73
2018-05-16T13:17:56.636Z,16.89
2018-05-16T13:20:24.043Z,17.02
2018-05-16T13:22:51.496Z,17.28
2018-05-16T13:25:19.175Z,17.46
2018-05-16T13:27:46.567Z,17.56
2018-05-16T13:30:14.007Z,17.69
2018-05-16T13:32:41.608Z,17.89
2018-05-16T13:35:09.095Z,18.01
2018-05-16T13:37:36.548Z,18.16
2018-05-16T13:40:04.175Z,18.19
2018-05-16T13:42:33.386Z,18.25
2018-05-16T13:45:00.852Z,18.14
2018-05-16T13:47:28.476Z,17.90
2018-05-16T13:49:55.914Z,18.21
2018-05-16T13:52:23.549Z,18.20
2018-05-16T13:54:51.059Z,18.26
2018-05-16T13:57:19.289Z,18.15
2018-05-16T13:59:46.699Z,18.05
2018-05-16T14:02:14.159Z,17.62
2018-05-16T14:04:41.632Z,17.23
2018-05-16T14:07:09.859Z,17.09
2018-05-16T14:09:37.336Z,16.97
2018-05-16T14:12:04.790Z,16.88
2018-05-16T14:14:32.248Z,16.72
2018-05-16T14:17:00.393Z,16.73
2018-05-16T14:19:28.225Z,16.75
2018-05-16T14:21:55.678Z,16.63
2018-05-16T14:24:23.094Z,16.66
2018-05-16T14:26:51.314Z,16.50
2018-05-16T14:29:18.749Z,16.48
2018-05-16T14:31:46.246Z,16.42
2018-05-16T14:34:13.709Z,16.32
2018-05-16T14:36:41.197Z,16.24
2018-05-16T14:39:09.633Z,16.38
2018-05-16T14:41:38.023Z,16.39
2018-05-16T14:44:05.477Z,16.48
2018-05-16T14:46:32.933Z,16.63
2018-05-16T14:49:00.332Z,16.84
2018-05-16T14:51:27.816Z,17.09
2018-05-16T14:53:56.121Z,17.18
2018-05-16T14:56:23.547Z,17.23
2018-05-16T14:58:51.029Z,17.39
2018-05-16T15:01:18.462Z,17.41
2018-05-16T15:03:45.904Z,17.38
2018-05-16T15:06:14.061Z,17.42
2018-05-16T15:08:42.096Z,17.59
2018-05-16T15:11:09.540Z,17.72
2018-05-16T15:13:37.005Z,17.93
2018-05-16T15:16:04.404Z,18.20
2018-05-16T15:18:31.872Z,18.37
2018-05-16T15:20:59.369Z,18.49
2018-05-16T15:23:28.057Z,18.73
2018-05-16T15:25:55.485Z,18.86
2018-05-16T15:28:25.669Z,18.94
2018-05-16T15:30:53.101Z,19.12
2018-05-16T15:33:21.618Z,19.25
2018-05-16T15:35:49.062Z,19.29
2018-05-16T15:38:16.546Z,19.31
2018-05-16T15:40:43.964Z,19.24
2018-05-16T15:43:11.465Z,19.17
2018-05-16T15:48:12.620Z,18.67
2018-05-16T15:50:40.036Z,18.73
2018-05-16T15:53:08.203Z,18.85
2018-05-16T15:55:35.660Z,18.94
2018-05-16T15:58:03.175Z,18.81
2018-05-16T16:00:30.642Z,18.86
2018-05-16T16:02:58.057Z,19.02
2018-05-16T16:05:25.509Z,19.16
2018-05-16T16:07:52.967Z,19.46
2018-05-16T16:10:20.457Z,19.55
2018-05-16T16:12:48.080Z,19.57
2018-05-16T16:15:15.613Z,19.62
2018-05-16T16:17:42.941Z,19.64
2018-05-16T16:20:10.934Z,19.54
2018-05-16T16:22:38.357Z,19.43
2018-05-16T16:25:05.798Z,19.26
2018-05-16T16:27:33.192Z,19.07
2018-05-16T16:30:10.026Z,18.94
2018-05-16T16:32:37.489Z,18.84
2018-05-16T16:35:04.956Z,18.84
2018-05-16T16:37:33.101Z,18.92
2018-05-16T16:40:00.523Z,19.07
2018-05-16T16:42:28.001Z,19.23
2018-05-16T16:44:55.667Z,19.24
2018-05-16T16:47:24.750Z,18.94
2018-05-16T16:49:52.231Z,18.87
2018-05-16T16:52:19.667Z,18.63
2018-05-16T16:54:47.110Z,18.57
2018-05-16T16:57:14.578Z,18.59
2018-05-16T16:59:44.031Z,18.60
2018-05-16T17:02:11.490Z,18.64
2018-05-16T17:04:40.404Z,18.59
2018-05-16T17:07:07.767Z,18.49
2018-05-16T17:09:35.224Z,18.43
2018-05-16T17:12:02.680Z,18.44
2018-05-16T17:14:30.121Z,18.33
2018-05-16T17:16:57.805Z,18.19
2018-05-16T17:19:25.239Z,18.09
2018-05-16T17:21:53.288Z,17.96
2018-05-16T17:24:20.833Z,17.79
2018-05-16T17:26:48.329Z,17.75
2018-05-16T17:29:15.745Z,17.84
2018-05-16T17:31:43.159Z,17.82
2018-05-16T17:34:10.591Z,17.79
2018-05-16T17:36:38.373Z,17.70
2018-05-16T17:39:05.781Z,17.61
2018-05-16T17:41:33.244Z,17.57
2018-05-16T17:44:00.698Z,17.49
2018-05-16T17:46:28.140Z,17.41
2018-05-16T17:48:55.645Z,17.34
2018-05-16T17:51:23.150Z,17.29
2018-05-16T17:53:50.611Z,17.24
2018-05-16T17:56:19.077Z,17.18
2018-05-16T17:58:47.793Z,17.23
2018-05-16T18:01:15.276Z,17.16
2018-05-16T18:03:43.608Z,17.12
2018-05-16T18:06:11.121Z,17.08
2018-05-16T18:08:38.560Z,17.14
2018-05-16T18:11:06.035Z,17.10
2018-05-16T18:16:45.373Z,17.27
2018-05-16T18:19:12.891Z,17.23
2018-05-16T18:21:40.322Z,17.16
2018-05-16T18:24:07.984Z,17.12
2018-05-16T18:26:35.418Z,17.14
2018-05-16T18:29:02.873Z,17.09
2018-05-16T18:31:30.314Z,17.03
2018-05-16T18:33:58.132Z,17.01
2018-05-16T18:36:25.600Z,17.00
2018-05-16T18:38:52.995Z,17.01
2018-05-16T18:41:20.441Z,17.00
2018-05-16T18:43:47.988Z,16.96
2018-05-16T18:46:15.423Z,16.90
2018-05-16T18:48:42.998Z,16.88
2018-05-16T18:51:11.510Z,16.83
2018-05-16T18:53:38.944Z,16.82
2018-05-16T18:56:13.265Z,16.84
2018-05-16T18:58:40.714Z,16.83
2018-05-16T19:01:08.115Z,16.79
2018-05-16T19:03:35.594Z,16.75
2018-05-16T19:06:03.048Z,16.68
2018-05-16T19:08:30.481Z,16.66
2018-05-16T19:10:59.233Z,16.61
2018-05-16T19:13:27.921Z,16.50
2018-05-16T19:15:55.389Z,16.37
2018-05-16T19:18:25.284Z,16.33
2018-05-16T19:20:52.729Z,16.24
2018-05-16T19:23:20.222Z,16.17
2018-05-16T19:25:49.011Z,16.06
2018-05-16T19:28:16.502Z,16.03
2018-05-16T19:30:43.967Z,16.01
2018-05-16T19:33:11.404Z,16.03
2018-05-16T19:35:40.753Z,16.05
2018-05-16T19:38:08.189Z,16.01
2018-05-16T19:40:35.735Z,15.94
2018-05-16T19:43:03.044Z,15.91
2018-05-16T19:45:30.522Z,15.87
2018-05-16T19:47:57.957Z,15.84
2018-05-16T19:50:25.364Z,15.87
2018-05-16T19:52:52.986Z,15.89
2018-05-16T19:55:20.356Z,15.86
2018-05-16T19:57:48.651Z,15.80
2018-05-16T20:00:16.112Z,15.79
2018-05-16T20:02:43.552Z,15.75
2018-05-16T20:05:11.029Z,15.69
2018-05-16T20:07:38.494Z,15.70
2018-05-16T20:10:08.623Z,15.67
2018-05-16T20:12:36.081Z,15.59
2018-05-16T20:15:03.577Z,15.44
2018-05-16T20:17:31.505Z,15.31
2018-05-16T20:19:58.968Z,15.18
2018-05-16T20:22:26.375Z,15.12
2018-05-16T20:24:53.837Z,15.04
2018-05-16T20:27:21.248Z,14.97
2018-05-16T20:29:48.651Z,14.97
2018-05-16T20:32:16.088Z,14.99
2018-05-16T20:34:43.547Z,15.02
2018-05-16T20:37:11.016Z,15.00
2018-05-16T20:39:38.805Z,14.98
2018-05-16T20:42:06.253Z,15.00
2018-05-16T20:44:34.170Z,15.01
2018-05-16T20:47:01.860Z,15.05
2018-05-16T20:49:29.326Z,15.06
2018-05-16T20:51:56.726Z,15.05
2018-05-16T20:54:24.134Z,15.09
2018-05-16T20:56:51.609Z,15.11
2018-05-16T20:59:19.097Z,15.10
2018-05-16T21:01:47.349Z,15.05
2018-05-16T21:04:14.824Z,14.97
2018-05-16T21:06:42.301Z,14.90
2018-05-16T21:09:09.744Z,14.85
2018-05-16T21:11:37.968Z,14.83
2018-05-16T21:14:05.434Z,14.78
2018-05-16T21:16:32.878Z,14.84
2018-05-16T21:19:00.311Z,14.82
2018-05-16T21:21:27.755Z,14.73
2018-05-16T21:23:55.292Z,14.72
2018-05-16T21:26:22.726Z,14.65
2018-05-16T21:28:50.114Z,14.57
2018-05-16T21:31:17.567Z,14.58
2018-05-16T21:33:45.011Z,14.55
2018-05-16T21:36:12.416Z,14.54
2018-05-16T21:38:39.882Z,14.56
2018-05-16T21:41:07.317Z,14.55
2018-05-16T21:43:34.746Z,14.51
2018-05-16T21:46:02.243Z,14.51
2018-05-16T21:48:30.576Z,14.58
2018-05-16T21:50:58.057Z,14.67
2018-05-16T21:53:25.606Z,14.65
2018-05-16T21:55:53.061Z,14.72
2018-05-16T21:58:20.469Z,14.66
2018-05-16T22:00:47.953Z,14.62
2018-05-16T22:03:15.391Z,14.58
2018-05-16T22:05:42.861Z,14.56
2018-05-16T22:08:11.436Z,14.56
2018-05-16T22:10:39.027Z,14.61
2018-05-16T22:13:06.437Z,14.54
2018-05-16T22:15:33.920Z,14.53
2018-05-16T22:18:01.511Z,14.55
2018-05-16T22:20:29.049Z,14.49
2018-05-16T22:22:56.519Z,14.47
2018-05-16T22:25:23.947Z,14.43
2018-05-16T22:27:51.408Z,14.40
2018-05-16T22:30:18.238Z,14.36
2018-05-16T22:32:51.210Z,14.31
2018-05-16T22:35:24.298Z,14.30
2018-05-16T22:37:57.450Z,14.30
2018-05-16T22:40:30.587Z,14.32
2018-05-16T22:42:58.350Z,14.30
2018-05-16T22:48:19.702Z,14.45
2018-05-16T22:50:47.179Z,14.57
2018-05-16T22:53:14.792Z,14.53
2018-05-16T22:55:42.255Z,14.52
2018-05-16T22:58:09.699Z,14.56
2018-05-16T23:00:37.146Z,14.62
2018-05-16T23:03:04.551Z,14.66
2018-05-16T23:05:32.285Z,14.73
2018-05-16T23:07:59.866Z,14.79
2018-05-16T23:10:27.299Z,14.80
2018-05-16T23:12:54.846Z,14.73
2018-05-16T23:15:22.274Z,14.63
2018-05-16T23:17:49.780Z,14.57
2018-05-16T23:20:17.293Z,14.48
2018-05-16T23:22:45.003Z,14.46
2018-05-16T23:25:12.455Z,14.49
2018-05-16T23:27:40.615Z,14.53
2018-05-16T23:30:08.029Z,14.60
2018-05-16T23:32:35.465Z,14.59
2018-05-16T23:35:02.981Z,14.61
2018-05-16T23:37:32.008Z,14.66
2018-05-16T23:39:59.444Z,14.66
2018-05-16T23:42:26.908Z,14.68
2018-05-16T23:44:54.396Z,14.66
2018-05-16T23:47:21.882Z,14.65
2018-05-16T23:49:49.405Z,14.59
2018-05-16T23:52:16.808Z,14.55
2018-05-16T23:54:44.708Z,14.51
2018-05-16T23:57:12.161Z,14.50
2018-05-16T23:59:39.546Z,14.51
